createdAt,value
2019-04-21T00:00:54.232Z,99.90
2019-04-21T00:03:23.568Z,99.90
2019-04-21T00:06:05.765Z,99.90
2019-04-21T00:08:53.513Z,99.90
2019-04-21T00:11:09.731Z,99.90
2019-04-21T00:13:29.504Z,99.90
2019-04-21T00:15:49.960Z,99.90
2019-04-21T00:18:23.432Z,99.90
2019-04-21T00:20:55.210Z,99.90
2019-04-21T00:23:39.317Z,99.90
2019-04-21T00:26:01.961Z,99.90
2019-04-21T00:28:43.650Z,99.90
2019-04-21T00:31:07.304Z,99.90
2019-04-21T00:33:25.857Z,99.90
2019-04-21T00:35:57.294Z,99.90
2019-04-21T00:38:40.385Z,99.90
2019-04-21T00:41:05.616Z,99.90
2019-04-21T00:43:35.303Z,99.90
2019-04-21T00:45:57.593Z,99.90
2019-04-21T00:48:36.442Z,99.90
2019-04-21T00:51:29.043Z,99.90
2019-04-21T00:53:51.494Z,99.90
2019-04-21T00:56:19.315Z,99.90
2019-04-21T00:58:47.855Z,99.90
2019-04-21T01:01:14.774Z,99.90
2019-04-21T01:03:46.245Z,99.90
2019-04-21T01:06:16.342Z,99.90
2019-04-21T01:08:43.676Z,99.90
2019-04-21T01:11:17.859Z,99.90
2019-04-21T01:13:45.389Z,99.90
2019-04-21T01:16:13.882Z,99.90
2019-04-21T01:18:47.906Z,99.90
2019-04-21T01:20:51.057Z,99.90
2019-04-21T01:23:19.233Z,99.90
2019-04-21T01:26:03.150Z,99.90
2019-04-21T01:28:35.964Z,99.90
2019-04-21T01:31:05.395Z,99.90
2019-04-21T01:33:39.716Z,99.90
2019-04-21T01:36:03.819Z,99.90
2019-04-21T01:38:40.099Z,99.90
2019-04-21T01:41:06.953Z,99.90
2019-04-21T01:43:27.742Z,99.90
2019-04-21T01:45:58.983Z,99.90
2019-04-21T01:48:27.202Z,99.90
2019-04-21T01:50:55.523Z,99.90
2019-04-21T01:53:58.001Z,99.90
2019-04-21T01:56:43.207Z,99.90
2019-04-21T01:58:57.585Z,99.90
2019-04-21T02:01:34.537Z,99.90
2019-04-21T02:04:06.882Z,99.90
2019-04-21T02:06:39.191Z,99.90
2019-04-21T02:09:05.156Z,99.90
2019-04-21T02:11:48.642Z,99.90
2019-04-21T02:14:11.330Z,99.90
2019-04-21T02:16:37.614Z,99.90
2019-04-21T02:18:59.114Z,99.90
2019-04-21T02:21:31.807Z,99.90
2019-04-21T02:24:11.769Z,99.90
2019-04-21T02:26:51.030Z,99.90
2019-04-21T02:29:09.614Z,99.90
2019-04-21T02:34:16.952Z,99.90
2019-04-21T02:41:55.297Z,99.90
2019-04-21T02:44:23.907Z,99.90
2019-04-21T02:46:42.051Z,99.90
2019-04-21T02:49:17.186Z,99.90
2019-04-21T02:56:43.824Z,99.90
2019-04-21T02:59:14.974Z,99.90
2019-04-21T03:02:04.494Z,99.90
2019-04-21T03:07:13.072Z,99.90
2019-04-21T03:09:43.195Z,99.90
2019-04-21T03:12:11.329Z,99.90
2019-04-21T03:14:50.447Z,99.90
2019-04-21T03:19:48.193Z,99.90
2019-04-21T03:22:12.336Z,99.90
2019-04-21T03:24:53.515Z,99.90
2019-04-21T03:37:16.634Z,99.90
2019-04-21T03:39:46.907Z,99.90
2019-04-21T03:42:19.714Z,99.90
2019-04-21T03:44:40.073Z,99.90
2019-04-21T03:49:54.527Z,99.90
2019-04-21T03:54:41.498Z,99.90
2019-04-21T03:57:18.932Z,99.90
2019-04-21T03:59:47.352Z,99.90
2019-04-21T04:02:47.229Z,99.90
2019-04-21T04:05:17.170Z,99.90
2019-04-21T04:10:11.956Z,99.90
2019-04-21T04:15:20.556Z,99.90
2019-04-21T04:17:41.090Z,99.90
2019-04-21T04:20:20.719Z,99.90
2019-04-21T04:22:52.615Z,99.90
2019-04-21T04:25:09.645Z,99.90
2019-04-21T04:27:59.875Z,99.90
2019-04-21T04:30:29.649Z,99.90
2019-04-21T04:35:26.379Z,99.90
2019-04-21T04:37:50.607Z,99.90
2019-04-21T04:40:28.128Z,99.90
2019-04-21T04:42:58.413Z,99.90
2019-04-21T04:45:32.441Z,99.90
2019-04-21T04:47:59.129Z,99.90
2019-04-21T04:50:34.014Z,99.90
2019-04-21T04:52:51.269Z,99.90
2019-04-21T04:55:25.758Z,99.90
2019-04-21T05:02:56.477Z,99.90
2019-04-21T05:05:26.696Z,99.90
2019-04-21T05:07:58.014Z,99.90
2019-04-21T05:10:36.788Z,99.90
2019-04-21T05:15:23.700Z,99.90
2019-04-21T05:20:24.022Z,99.90
2019-04-21T05:22:44.239Z,99.90
2019-04-21T05:25:03.733Z,99.90
2019-04-21T05:27:38.553Z,99.90
2019-04-21T05:30:22.101Z,99.90
2019-04-21T05:33:03.650Z,99.90
2019-04-21T05:35:49.275Z,99.90
2019-04-21T05:38:21.858Z,99.90
2019-04-21T05:40:50.761Z,99.90
2019-04-21T05:43:28.125Z,99.90
2019-04-21T05:46:01.127Z,99.90
2019-04-21T05:48:39.722Z,99.90
2019-04-21T05:51:03.606Z,99.90
2019-04-21T05:53:39.308Z,99.90
2019-04-21T05:56:09.996Z,99.90
2019-04-21T05:58:40.591Z,99.90
2019-04-21T06:03:46.172Z,99.90
2019-04-21T06:06:16.452Z,99.90
2019-04-21T06:08:42.310Z,99.90
2019-04-21T06:11:10.493Z,99.90
2019-04-21T06:13:48.448Z,99.90
2019-04-21T06:16:07.349Z,99.90
2019-04-21T06:18:43.379Z,99.90
2019-04-21T06:23:36.564Z,99.90
2019-04-21T06:26:21.596Z,99.90
2019-04-21T06:28:41.489Z,99.90
2019-04-21T06:33:36.258Z,99.90
2019-04-21T06:41:29.741Z,99.90
2019-04-21T06:43:56.345Z,99.90
2019-04-21T06:46:26.470Z,99.90
2019-04-21T06:48:58.374Z,99.90
2019-04-21T06:51:23.991Z,99.90
2019-04-21T06:56:27.152Z,99.90
2019-04-21T06:58:48.014Z,99.90
2019-04-21T07:01:28.649Z,99.90
2019-04-21T07:03:49.357Z,99.90
2019-04-21T07:06:18.371Z,99.90
2019-04-21T07:08:56.705Z,99.90
2019-04-21T07:11:09.705Z,99.90
2019-04-21T07:13:50.666Z,99.90
2019-04-21T07:16:19.409Z,99.90
2019-04-21T07:18:58.640Z,99.90
2019-04-21T07:21:14.387Z,99.90
2019-04-21T07:23:47.226Z,99.90
2019-04-21T07:26:11.752Z,99.90
2019-04-21T07:28:49.887Z,99.90
2019-04-21T07:36:11.481Z,99.90
2019-04-21T07:38:41.156Z,99.90
2019-04-21T07:41:02.298Z,99.90
2019-04-21T07:43:32.959Z,99.90
2019-04-21T07:46:03.607Z,99.90
2019-04-21T07:48:43.236Z,99.90
2019-04-21T07:51:47.960Z,99.90
2019-04-21T07:54:18.419Z,99.90
2019-04-21T07:56:28.799Z,99.90
2019-04-21T07:59:12.754Z,99.90
2019-04-21T08:01:45.309Z,99.90
2019-04-21T08:04:33.161Z,99.90
2019-04-21T08:06:46.541Z,99.90
2019-04-21T08:09:18.250Z,99.90
2019-04-21T08:11:45.702Z,99.90
2019-04-21T08:14:17.507Z,99.90
2019-04-21T08:16:53.408Z,99.90
2019-04-21T08:19:33.807Z,99.90
2019-04-21T08:22:05.447Z,99.80
2019-04-21T08:24:36.351Z,99.90
2019-04-21T08:27:04.938Z,99.90
2019-04-21T08:29:33.468Z,99.90
2019-04-21T08:32:11.032Z,99.90
2019-04-21T08:34:34.702Z,99.90
2019-04-21T08:36:58.656Z,98.90
2019-04-21T08:39:31.299Z,99.30
2019-04-21T08:41:57.172Z,99.00
2019-04-21T08:44:36.043Z,99.10
2019-04-21T08:46:59.129Z,98.60
2019-04-21T08:49:29.355Z,98.50
2019-04-21T08:52:00.744Z,98.20
2019-04-21T08:54:28.113Z,98.00
2019-04-21T08:57:28.910Z,97.80
2019-04-21T09:00:19.829Z,97.30
2019-04-21T09:03:00.270Z,97.50
2019-04-21T09:05:23.414Z,96.60
2019-04-21T09:08:00.397Z,96.80
2019-04-21T09:10:28.128Z,96.50
2019-04-21T09:13:00.141Z,96.00
2019-04-21T09:15:28.036Z,96.00
2019-04-21T09:17:48.964Z,95.30
2019-04-21T09:20:38.750Z,95.80
2019-04-21T09:22:54.305Z,95.40
2019-04-21T09:25:38.352Z,95.00
2019-04-21T09:27:55.033Z,95.00
2019-04-21T09:30:07.395Z,94.90
2019-04-21T09:32:37.063Z,94.40
2019-04-21T09:35:10.273Z,93.80
2019-04-21T09:37:46.847Z,93.50
2019-04-21T09:40:06.652Z,93.00
2019-04-21T09:42:41.204Z,92.80
2019-04-21T09:45:06.222Z,93.60
2019-04-21T09:47:40.133Z,92.50
2019-04-21T09:50:04.896Z,91.80
2019-04-21T09:52:44.276Z,92.30
2019-04-21T09:55:09.400Z,91.20
2019-04-21T09:57:41.307Z,90.60
2019-04-21T10:00:10.024Z,91.00
2019-04-21T10:02:41.025Z,90.10
2019-04-21T10:05:02.449Z,89.50
2019-04-21T10:07:36.507Z,87.80
2019-04-21T10:10:00.224Z,88.80
2019-04-21T10:12:28.717Z,87.90
2019-04-21T10:14:57.379Z,89.20
2019-04-21T10:17:29.578Z,86.40
2019-04-21T10:19:58.595Z,88.00
2019-04-21T10:22:26.697Z,84.50
2019-04-21T10:24:54.455Z,83.90
2019-04-21T10:27:23.120Z,85.90
2019-04-21T10:29:52.197Z,85.50
2019-04-21T10:32:23.178Z,84.70
2019-04-21T10:34:49.620Z,84.70
2019-04-21T10:37:17.251Z,83.60
2019-04-21T10:39:45.354Z,84.70
2019-04-21T10:42:13.159Z,80.20
2019-04-21T10:44:41.040Z,80.40
2019-04-21T10:47:09.392Z,80.40
2019-04-21T10:49:36.981Z,80.60
2019-04-21T10:52:10.691Z,78.50
2019-04-21T10:55:02.157Z,77.70
2019-04-21T10:57:16.723Z,76.20
2019-04-21T10:59:47.951Z,75.50
2019-04-21T11:02:19.557Z,72.00
2019-04-21T11:05:06.903Z,73.00
2019-04-21T11:08:01.238Z,72.50
2019-04-21T11:10:20.352Z,72.30
2019-04-21T11:12:47.940Z,70.70
2019-04-21T11:15:16.982Z,70.50
2019-04-21T11:17:45.564Z,69.70
2019-04-21T11:20:15.045Z,69.10
2019-04-21T11:22:43.818Z,69.10
2019-04-21T11:25:12.892Z,69.00
2019-04-21T11:27:40.824Z,69.30
2019-04-21T11:30:09.550Z,68.20
2019-04-21T11:32:37.256Z,67.20
2019-04-21T11:35:05.301Z,67.80
2019-04-21T11:37:34.627Z,65.00
2019-04-21T11:40:08.616Z,64.20
2019-04-21T11:42:35.604Z,66.30
2019-04-21T11:45:04.212Z,64.10
2019-04-21T11:47:38.927Z,62.90
2019-04-21T11:50:07.384Z,63.30
2019-04-21T11:52:35.049Z,63.00
2019-04-21T11:55:02.840Z,63.00
2019-04-21T11:57:38.345Z,59.70
2019-04-21T12:00:03.890Z,60.20
2019-04-21T12:02:31.523Z,60.40
2019-04-21T12:04:59.272Z,56.70
2019-04-21T12:07:33.409Z,58.10
2019-04-21T12:10:03.770Z,57.90
2019-04-21T12:12:31.459Z,56.50
2019-04-21T12:14:59.918Z,55.50
2019-04-21T12:17:31.990Z,56.40
2019-04-21T12:20:00.959Z,57.30
2019-04-21T12:22:32.483Z,57.20
2019-04-21T12:24:58.264Z,56.90
2019-04-21T12:27:33.978Z,56.70
2019-04-21T12:30:02.117Z,55.80
2019-04-21T12:32:48.608Z,55.90
2019-04-21T12:35:17.623Z,54.40
2019-04-21T12:37:46.884Z,54.20
2019-04-21T12:40:14.846Z,55.80
2019-04-21T12:42:43.617Z,55.80
2019-04-21T12:45:13.128Z,54.10
2019-04-21T12:47:41.917Z,54.00
2019-04-21T12:50:12.771Z,52.80
2019-04-21T12:52:41.808Z,52.20
2019-04-21T12:55:09.606Z,51.70
2019-04-21T12:57:37.306Z,52.10
2019-04-21T13:00:08.911Z,51.60
2019-04-21T13:02:37.839Z,51.70
2019-04-21T13:05:05.573Z,52.30
2019-04-21T13:07:33.515Z,51.90
2019-04-21T13:10:02.367Z,51.30
2019-04-21T13:12:31.109Z,51.90
2019-04-21T13:14:59.564Z,52.70
2019-04-21T13:17:28.101Z,51.30
2019-04-21T13:19:56.903Z,50.50
2019-04-21T13:22:25.862Z,50.80
2019-04-21T13:24:56.814Z,50.40
2019-04-21T13:27:26.958Z,51.20
2019-04-21T13:29:54.606Z,50.00
2019-04-21T13:32:22.178Z,50.60
2019-04-21T13:34:50.919Z,48.90
2019-04-21T13:37:19.484Z,50.70
2019-04-21T13:40:20.717Z,50.40
2019-04-21T13:42:39.413Z,50.40
2019-04-21T13:45:02.599Z,48.80
2019-04-21T13:47:30.597Z,48.00
2019-04-21T13:49:59.851Z,47.20
2019-04-21T13:52:28.912Z,47.60
2019-04-21T13:54:57.833Z,47.50
2019-04-21T13:57:26.320Z,47.30
2019-04-21T13:59:55.095Z,48.30
2019-04-21T14:02:22.751Z,48.50
2019-04-21T14:04:51.663Z,48.20
2019-04-21T14:07:20.489Z,48.20
2019-04-21T14:09:57.033Z,47.50
2019-04-21T14:12:17.511Z,50.10
2019-04-21T14:14:46.322Z,47.30
2019-04-21T14:17:15.061Z,47.50
2019-04-21T14:19:43.537Z,48.50
2019-04-21T14:22:13.962Z,46.40
2019-04-21T14:24:41.734Z,46.40
2019-04-21T14:27:12.137Z,46.40
2019-04-21T14:29:41.629Z,48.20
2019-04-21T14:32:10.584Z,48.80
2019-04-21T14:34:39.539Z,47.00
2019-04-21T14:37:08.688Z,46.50
2019-04-21T14:39:48.536Z,48.40
2019-04-21T14:42:06.434Z,46.50
2019-04-21T14:44:34.278Z,45.20
2019-04-21T14:47:27.386Z,45.30
2019-04-21T14:50:24.453Z,46.10
2019-04-21T14:53:27.624Z,44.70
2019-04-21T14:55:55.519Z,43.80
2019-04-21T14:58:27.428Z,44.00
2019-04-21T15:01:02.108Z,43.90
2019-04-21T15:03:30.055Z,44.10
2019-04-21T15:05:57.909Z,44.40
2019-04-21T15:08:26.933Z,43.40
2019-04-21T15:10:54.942Z,45.20
2019-04-21T15:13:23.716Z,46.10
2019-04-21T15:15:52.195Z,45.20
2019-04-21T15:18:21.038Z,43.40
2019-04-21T15:20:50.478Z,43.40
2019-04-21T15:23:18.237Z,43.80
2019-04-21T15:25:50.286Z,45.50
2019-04-21T15:28:17.965Z,43.60
2019-04-21T15:30:46.956Z,43.40
2019-04-21T15:33:16.178Z,44.20
2019-04-21T15:35:44.952Z,43.90
2019-04-21T15:38:14.007Z,43.70
2019-04-21T15:40:49.728Z,44.40
2019-04-21T15:43:14.749Z,43.90
2019-04-21T15:45:42.586Z,44.30
2019-04-21T15:48:10.183Z,43.50
2019-04-21T15:50:37.895Z,44.30
2019-04-21T15:53:07.734Z,44.70
2019-04-21T15:55:50.777Z,44.70
2019-04-21T15:58:38.886Z,43.60
2019-04-21T16:01:41.366Z,44.30
2019-04-21T16:04:10.552Z,44.50
2019-04-21T16:06:39.395Z,45.10
2019-04-21T16:09:14.222Z,45.10
2019-04-21T16:11:39.771Z,44.60
2019-04-21T16:14:08.043Z,43.90
2019-04-21T16:16:36.180Z,44.00
2019-04-21T16:19:04.047Z,44.10
2019-04-21T16:21:41.000Z,44.30
2019-04-21T16:24:27.834Z,43.90
2019-04-21T16:26:56.478Z,43.90
2019-04-21T16:29:25.005Z,43.30
2019-04-21T16:31:53.275Z,42.20
2019-04-21T16:34:36.092Z,43.60
2019-04-21T16:36:53.922Z,42.90
2019-04-21T16:39:21.612Z,44.20
2019-04-21T16:41:55.081Z,44.10
2019-04-21T16:44:25.194Z,43.60
2019-04-21T16:46:53.683Z,44.10
2019-04-21T16:49:22.072Z,44.00
2019-04-21T16:52:10.025Z,44.30
2019-04-21T16:54:38.161Z,45.90
2019-04-21T16:57:15.598Z,45.20
2019-04-21T16:59:48.620Z,45.10
2019-04-21T17:02:16.493Z,44.80
2019-04-21T17:04:44.388Z,45.80
2019-04-21T17:07:13.384Z,45.50
2019-04-21T17:09:41.496Z,45.30
2019-04-21T17:12:13.795Z,45.90
2019-04-21T17:14:53.672Z,45.90
2019-04-21T17:17:32.408Z,45.80
2019-04-21T17:19:43.580Z,46.90
2019-04-21T17:22:08.020Z,46.10
2019-04-21T17:24:35.543Z,46.50
2019-04-21T17:27:03.086Z,46.80
2019-04-21T17:29:30.751Z,46.60
2019-04-21T17:31:59.710Z,47.20
2019-04-21T17:34:29.828Z,47.40
2019-04-21T17:36:57.255Z,47.60
2019-04-21T17:39:27.018Z,47.10
2019-04-21T17:42:11.724Z,47.30
2019-04-21T17:44:32.976Z,47.50
2019-04-21T17:47:13.288Z,48.00
2019-04-21T17:49:34.831Z,48.50
2019-04-21T17:52:37.958Z,48.80
2019-04-21T17:55:22.972Z,48.90
2019-04-21T17:58:08.360Z,48.70
2019-04-21T18:01:03.602Z,48.70
2019-04-21T18:03:24.254Z,48.40
2019-04-21T18:05:39.317Z,49.00
2019-04-21T18:08:07.101Z,48.00
2019-04-21T18:10:35.697Z,48.60
2019-04-21T18:12:57.309Z,48.30
2019-04-21T18:15:42.422Z,48.50
2019-04-21T18:18:05.200Z,48.50
2019-04-21T18:20:39.825Z,48.90
2019-04-21T18:23:39.755Z,49.70
2019-04-21T18:26:20.942Z,50.00
2019-04-21T18:28:56.942Z,51.30
2019-04-21T18:31:27.044Z,52.60
2019-04-21T18:34:18.226Z,52.80
2019-04-21T18:36:51.651Z,54.00
2019-04-21T18:39:34.374Z,54.80
2019-04-21T18:42:18.940Z,56.00
2019-04-21T18:45:12.805Z,56.70
2019-04-21T18:47:50.036Z,57.70
2019-04-21T18:50:21.866Z,59.00
2019-04-21T18:53:04.821Z,60.00
2019-04-21T18:55:31.993Z,60.90
2019-04-21T18:57:55.045Z,61.70
2019-04-21T19:00:30.667Z,62.60
2019-04-21T19:02:56.033Z,63.30
2019-04-21T19:05:25.025Z,64.10
2019-04-21T19:08:11.870Z,64.30
2019-04-21T19:10:44.746Z,63.70
2019-04-21T19:13:29.133Z,64.50
2019-04-21T19:15:48.484Z,65.60
2019-04-21T19:20:34.865Z,66.90
2019-04-21T19:23:04.559Z,66.90
2019-04-21T19:25:35.918Z,67.70
2019-04-21T19:27:59.031Z,68.40
2019-04-21T19:30:39.893Z,68.40
2019-04-21T19:33:10.192Z,68.90
2019-04-21T19:35:21.397Z,69.50
2019-04-21T19:37:57.291Z,69.60
2019-04-21T19:40:34.036Z,69.90
2019-04-21T19:42:57.907Z,70.50
2019-04-21T19:45:34.195Z,71.00
2019-04-21T19:48:06.771Z,71.20
2019-04-21T19:50:35.155Z,71.90
2019-04-21T19:53:02.951Z,71.30
2019-04-21T19:55:24.383Z,71.70
2019-04-21T19:57:52.691Z,72.40
2019-04-21T20:00:22.263Z,72.00
2019-04-21T20:02:50.408Z,72.80
2019-04-21T20:05:25.583Z,74.20
2019-04-21T20:08:03.630Z,73.10
2019-04-21T20:10:44.406Z,73.30
2019-04-21T20:13:07.268Z,74.90
2019-04-21T20:15:42.067Z,76.80
2019-04-21T20:17:58.831Z,77.30
2019-04-21T20:20:17.156Z,77.30
2019-04-21T20:22:48.542Z,78.20
2019-04-21T20:25:19.074Z,78.70
2019-04-21T20:27:55.434Z,78.50
2019-04-21T20:30:37.619Z,78.00
2019-04-21T20:33:19.716Z,78.50
2019-04-21T20:35:46.906Z,78.30
2019-04-21T20:38:05.176Z,80.60
2019-04-21T20:40:27.211Z,78.30
2019-04-21T20:43:08.241Z,77.30
2019-04-21T20:47:50.489Z,77.20
2019-04-21T20:50:32.623Z,76.70
2019-04-21T20:53:06.020Z,76.60
2019-04-21T20:55:22.481Z,77.50
2019-04-21T20:57:59.625Z,76.80
2019-04-21T21:00:32.719Z,76.00
2019-04-21T21:03:07.094Z,74.80
2019-04-21T21:05:27.369Z,75.10
2019-04-21T21:08:03.638Z,74.40
2019-04-21T21:10:34.700Z,73.40
2019-04-21T21:13:06.203Z,72.90
2019-04-21T21:15:29.141Z,73.00
2019-04-21T21:18:06.211Z,72.70
2019-04-21T21:20:31.069Z,72.40
2019-04-21T21:22:57.463Z,71.60
2019-04-21T21:25:33.808Z,71.50
2019-04-21T21:27:51.749Z,70.60
2019-04-21T21:30:24.318Z,70.70
2019-04-21T21:32:56.170Z,70.80
2019-04-21T21:35:21.449Z,69.70
2019-04-21T21:37:56.694Z,70.10
2019-04-21T21:40:28.693Z,69.60
2019-04-21T21:42:40.701Z,69.60
2019-04-21T21:45:12.663Z,69.90
2019-04-21T21:47:53.605Z,70.00
2019-04-21T21:50:16.148Z,68.60
2019-04-21T21:52:47.898Z,68.90
2019-04-21T21:55:05.692Z,68.90
2019-04-21T21:57:40.508Z,70.00
2019-04-21T22:00:08.607Z,69.90
2019-04-21T22:02:42.107Z,70.00
2019-04-21T22:05:09.642Z,70.00
2019-04-21T22:07:36.647Z,70.00
2019-04-21T22:10:04.405Z,70.40
2019-04-21T22:12:40.396Z,69.90
2019-04-21T22:15:10.071Z,70.10
2019-04-21T22:17:44.638Z,71.00
2019-04-21T22:20:22.815Z,71.00
2019-04-21T22:22:38.940Z,70.90
2019-04-21T22:25:09.301Z,70.50
2019-04-21T22:27:28.144Z,71.60
2019-04-21T22:30:00.849Z,70.70
2019-04-21T22:32:28.707Z,70.90
2019-04-21T22:34:59.920Z,70.90
2019-04-21T22:37:39.248Z,72.20
2019-04-21T22:40:04.700Z,72.00
2019-04-21T22:42:28.738Z,71.90
2019-04-21T22:44:52.476Z,72.20
2019-04-21T22:47:25.113Z,72.60
2019-04-21T22:49:50.515Z,73.20
2019-04-21T22:52:21.018Z,73.90
2019-04-21T22:54:49.290Z,74.50
2019-04-21T22:57:22.012Z,74.40
2019-04-21T22:59:53.898Z,75.00
2019-04-21T23:02:22.618Z,75.70
2019-04-21T23:04:50.674Z,76.50
2019-04-21T23:07:17.275Z,76.90
2019-04-21T23:09:45.479Z,77.50
2019-04-21T23:12:20.470Z,77.20
2019-04-21T23:14:49.398Z,77.80
2019-04-21T23:17:40.595Z,78.20
2019-04-21T23:20:03.243Z,78.80
2019-04-21T23:22:27.964Z,79.60
2019-04-21T23:25:18.426Z,80.30
2019-04-21T23:27:46.885Z,79.80
2019-04-21T23:30:26.442Z,83.00
2019-04-21T23:32:41.026Z,82.10
2019-04-21T23:35:01.755Z,82.50
2019-04-21T23:37:28.984Z,83.70
2019-04-21T23:40:04.429Z,83.80
2019-04-21T23:42:31.888Z,84.50
2019-04-21T23:44:58.029Z,85.70
2019-04-21T23:47:35.587Z,86.70
2019-04-21T23:50:00.141Z,87.30
2019-04-21T23:52:23.723Z,87.90
2019-04-21T23:54:51.614Z,88.80
2019-04-21T23:57:28.549Z,89.60
2019-04-21T23:59:53.463Z,90.30
